Terminal Aerodrome Forecast
Issued by NWS

Home | Current Version | Previous Version | Text Only | Print | Product List | Glossary On
Versions: 1 2 3 4 5 6 7 8 9 10 11 12 13
000
FTUS42 KFFC 191120
TAFRYY
TAF
KRYY 191120Z 1912/2012 00000KT P6SM SKC
     FM191700 30003KT P6SM SCT040
     FM200200 00000KT P6SM SCT035
     FM200500 00000KT P6SM FEW250=

USA.gov is the U.S. government's official web portal to all federal, state and local government web resources and services.